Time;durP1;ratioP1;P1;durP2;ratioP2;P2;SDS_P1;SDS_P2;PMS_P1;PMS_P2;Temp;Humidity;BMP_temperature;BMP_pressure;BME280_temperature;BME280_humidity;BME280_pressure;Samples;Min_cycle;Max_cycle;Signal;HPM_P1;HPM_P2
2024/04/26 00:01:55;;;;;;;14.80;8.88;;;;;;;;;;5510162;25;20298;-75
2024/04/26 00:04:20;;;;;;;13.67;8.80;;;;;;;;;;5526776;25;20236;-74
2024/04/26 00:06:45;;;;;;;11.68;8.98;;;;;;;;;;5517880;25;20862;-73
2024/04/26 00:09:11;;;;;;;12.10;8.95;;;;;;;;;;5503533;25;20247;-74
2024/04/26 00:11:39;;;;;;;14.38;8.85;;;;;;;;;;5520624;25;20308;-73
2024/04/26 00:14:05;;;;;;;15.32;9.88;;;;;;;;;;5521281;25;20582;-74
2024/04/26 00:16:37;;;;;;;14.95;9.88;;;;;;;;;;5497556;26;20244;-75
2024/04/26 00:19:02;;;;;;;11.57;7.93;;;;;;;;;;5517724;26;20794;-74
2024/04/26 00:21:28;;;;;;;11.85;7.93;;;;;;;;;;5517324;25;20232;-75
2024/04/26 00:23:53;;;;;;;9.05;7.03;;;;;;;;;;5522176;25;20768;-75
2024/04/26 00:26:19;;;;;;;9.43;6.18;;;;;;;;;;5520177;25;20743;-75
2024/04/26 00:28:44;;;;;;;10.05;5.35;;;;;;;;;;5486634;26;20547;-76
2024/04/26 00:31:10;;;;;;;8.30;5.60;;;;;;;;;;5522604;25;20283;-75
2024/04/26 00:33:39;;;;;;;8.70;4.32;;;;;;;;;;5519182;26;20299;-75
2024/04/26 00:36:04;;;;;;;6.57;4.57;;;;;;;;;;5512281;25;20243;-75
2024/04/26 00:38:30;;;;;;;9.05;4.90;;;;;;;;;;5519515;25;20323;-76
2024/04/26 00:40:55;;;;;;;5.80;3.92;;;;;;;;;;5518951;25;20290;-76
2024/04/26 00:43:21;;;;;;;7.15;4.75;;;;;;;;;;5483310;26;20795;-75
2024/04/26 00:45:46;;;;;;;7.45;4.47;;;;;;;;;;5513252;25;20234;-76
2024/04/26 00:48:12;;;;;;;6.85;4.88;;;;;;;;;;5519735;26;20228;-76
2024/04/26 00:50:38;;;;;;;8.02;5.05;;;;;;;;;;5498159;25;20367;-75
2024/04/26 00:53:04;;;;;;;7.35;5.38;;;;;;;;;;5520691;25;20239;-76
2024/04/26 00:55:31;;;;;;;8.30;6.10;;;;;;;;;;5518315;25;20598;-75
2024/04/26 00:57:57;;;;;;;12.40;6.32;;;;;;;;;;5498079;25;20256;-76
2024/04/26 01:00:23;;;;;;;8.35;6.45;;;;;;;;;;5512988;25;20256;-75
2024/04/26 01:02:50;;;;;;;8.35;6.50;;;;;;;;;;5521517;25;20434;-75
2024/04/26 01:05:15;;;;;;;12.07;7.85;;;;;;;;;;5522402;25;20232;-76
2024/04/26 01:07:41;;;;;;;11.60;8.35;;;;;;;;;;5488687;25;20274;-75
2024/04/26 01:10:07;;;;;;;13.68;8.10;;;;;;;;;;5521223;25;20290;-75
2024/04/26 01:12:32;;;;;;;11.10;8.13;;;;;;;;;;5521280;25;20235;-75
2024/04/26 01:14:57;;;;;;;12.88;8.85;;;;;;;;;;5511227;26;20231;-77
2024/04/26 01:17:23;;;;;;;13.50;8.05;;;;;;;;;;5522879;25;20239;-76
2024/04/26 01:19:49;;;;;;;14.85;8.98;;;;;;;;;;5518782;26;20286;-74
2024/04/26 01:22:40;;;;;;;14.35;9.00;;;;;;;;;;5518734;25;20235;-75
2024/04/26 01:25:06;;;;;;;12.95;7.68;;;;;;;;;;5533946;25;20594;-74
2024/04/26 01:27:32;;;;;;;13.00;8.75;;;;;;;;;;5483964;26;20244;-75
2024/04/26 01:29:57;;;;;;;10.73;8.13;;;;;;;;;;5520498;25;20278;-75
2024/04/26 01:32:23;;;;;;;11.98;9.10;;;;;;;;;;5498569;25;20296;-75
2024/04/26 01:34:48;;;;;;;14.35;8.23;;;;;;;;;;5493187;25;20714;-74
2024/04/26 01:37:14;;;;;;;12.52;7.93;;;;;;;;;;5503517;25;20270;-74
2024/04/26 01:39:39;;;;;;;10.63;8.18;;;;;;;;;;5486216;26;20248;-75
2024/04/26 01:42:05;;;;;;;13.05;8.50;;;;;;;;;;5482266;26;20245;-75
2024/04/26 01:44:31;;;;;;;11.13;8.40;;;;;;;;;;5506764;26;20243;-76
2024/04/26 01:46:56;;;;;;;12.55;8.30;;;;;;;;;;5498386;25;20601;-74
2024/04/26 01:49:22;;;;;;;13.57;9.10;;;;;;;;;;5519302;26;20243;-75
2024/04/26 01:51:48;;;;;;;15.50;8.95;;;;;;;;;;5517780;26;20592;-75
2024/04/26 01:54:14;;;;;;;14.10;8.70;;;;;;;;;;5486728;25;20666;-75
2024/04/26 01:56:39;;;;;;;13.43;9.40;;;;;;;;;;5523563;25;20244;-74
2024/04/26 01:59:05;;;;;;;15.43;9.63;;;;;;;;;;5531282;25;20236;-74
2024/04/26 02:01:30;;;;;;;14.23;9.60;;;;;;;;;;5468105;26;20243;-74
2024/04/26 02:03:56;;;;;;;15.00;9.50;;;;;;;;;;5487863;26;20278;-74
2024/04/26 02:06:22;;;;;;;15.48;10.07;;;;;;;;;;5521118;25;20326;-75
2024/04/26 02:08:47;;;;;;;13.50;9.75;;;;;;;;;;5522219;25;20911;-75
2024/04/26 02:11:13;;;;;;;16.50;10.50;;;;;;;;;;5511263;26;20232;-74
2024/04/26 02:13:38;;;;;;;16.40;10.10;;;;;;;;;;5518047;25;20418;-75
2024/04/26 02:16:06;;;;;;;15.27;10.07;;;;;;;;;;5488763;25;20247;-73
2024/04/26 02:18:32;;;;;;;18.33;11.23;;;;;;;;;;5506633;25;20820;-73
2024/04/26 02:20:57;;;;;;;18.42;12.23;;;;;;;;;;5481752;26;20251;-74
2024/04/26 02:23:23;;;;;;;20.65;11.32;;;;;;;;;;5480367;26;20311;-73
2024/04/26 02:25:49;;;;;;;18.60;12.43;;;;;;;;;;5547608;25;20274;-73
2024/04/26 02:28:14;;;;;;;20.30;13.15;;;;;;;;;;5517940;25;20236;-74
2024/04/26 02:30:40;;;;;;;17.88;12.23;;;;;;;;;;5497892;25;20260;-75
2024/04/26 02:33:06;;;;;;;16.73;11.93;;;;;;;;;;5511988;26;20240;-75
2024/04/26 02:35:31;;;;;;;22.60;13.27;;;;;;;;;;5520502;25;20278;-73
2024/04/26 02:37:57;;;;;;;17.85;12.23;;;;;;;;;;5504784;25;20590;-73
2024/04/26 02:40:22;;;;;;;19.98;12.20;;;;;;;;;;5518962;25;20709;-74
2024/04/26 02:42:48;;;;;;;17.23;11.43;;;;;;;;;;5481899;26;20241;-74
2024/04/26 02:45:13;;;;;;;17.17;11.20;;;;;;;;;;5500053;25;20542;-73
2024/04/26 02:47:39;;;;;;;17.23;11.43;;;;;;;;;;5510833;25;20236;-74
2024/04/26 02:50:04;;;;;;;18.40;11.63;;;;;;;;;;5517799;26;20244;-73
2024/04/26 02:52:30;;;;;;;17.25;11.55;;;;;;;;;;5519503;25;20278;-74
2024/04/26 02:54:55;;;;;;;17.90;11.43;;;;;;;;;;5517900;25;20287;-73
2024/04/26 02:57:21;;;;;;;16.90;11.10;;;;;;;;;;5519054;25;20734;-73
2024/04/26 02:59:46;;;;;;;16.63;10.60;;;;;;;;;;5518558;25;20240;-74
2024/04/26 03:02:17;;;;;;;17.10;11.17;;;;;;;;;;5514970;25;20235;-73
2024/04/26 03:04:43;;;;;;;16.77;10.63;;;;;;;;;;5502925;25;20612;-74
2024/04/26 03:07:10;;;;;;;19.37;11.50;;;;;;;;;;5520637;25;20235;-73
2024/04/26 03:09:38;;;;;;;16.67;11.60;;;;;;;;;;5485691;26;20251;-73
2024/04/26 03:12:04;;;;;;;16.87;11.17;;;;;;;;;;5520206;25;20735;-74
2024/04/26 03:14:29;;;;;;;21.83;12.60;;;;;;;;;;5518968;25;20347;-75
2024/04/26 03:16:55;;;;;;;17.70;11.03;;;;;;;;;;5519232;25;20231;-74
2024/04/26 03:19:20;;;;;;;18.23;11.47;;;;;;;;;;5503324;26;20240;-73
2024/04/26 03:21:46;;;;;;;19.17;12.07;;;;;;;;;;5518092;26;20284;-73
2024/04/26 03:24:11;;;;;;;17.73;11.43;;;;;;;;;;5518405;25;20291;-73
2024/04/26 03:26:37;;;;;;;19.07;12.50;;;;;;;;;;5518976;25;20301;-74
2024/04/26 03:29:02;;;;;;;18.30;11.90;;;;;;;;;;5516457;25;20651;-73
2024/04/26 03:31:28;;;;;;;17.83;12.20;;;;;;;;;;5504490;26;20475;-74
2024/04/26 03:33:53;;;;;;;16.30;11.47;;;;;;;;;;5518330;25;20335;-74
2024/04/26 03:36:20;;;;;;;17.30;12.30;;;;;;;;;;5515797;25;20282;-74
2024/04/26 03:38:46;;;;;;;20.20;12.57;;;;;;;;;;5518148;25;20278;-74
2024/04/26 03:41:11;;;;;;;18.13;11.20;;;;;;;;;;5508834;25;21116;-75
2024/04/26 03:43:37;;;;;;;17.63;11.83;;;;;;;;;;5508524;25;20231;-74
2024/04/26 03:46:02;;;;;;;20.47;11.47;;;;;;;;;;5517466;25;20526;-75
2024/04/26 03:48:27;;;;;;;19.23;12.03;;;;;;;;;;5517531;25;20235;-74
2024/04/26 03:50:54;;;;;;;14.70;10.33;;;;;;;;;;5513875;25;20227;-74
2024/04/26 03:53:19;;;;;;;20.00;11.83;;;;;;;;;;5520254;25;20724;-74
2024/04/26 03:55:45;;;;;;;18.57;11.57;;;;;;;;;;5504004;25;20239;-73
2024/04/26 03:58:10;;;;;;;17.73;11.50;;;;;;;;;;5519354;25;20279;-74
2024/04/26 04:00:37;;;;;;;18.03;12.17;;;;;;;;;;5471669;25;20285;-74
2024/04/26 04:03:03;;;;;;;18.53;11.73;;;;;;;;;;5515981;25;20347;-74
2024/04/26 04:05:30;;;;;;;17.90;11.87;;;;;;;;;;5512706;25;20231;-74
2024/04/26 04:07:55;;;;;;;17.60;11.53;;;;;;;;;;5483369;25;20236;-74
2024/04/26 04:10:25;;;;;;;18.37;11.77;;;;;;;;;;5517956;25;20319;-74
2024/04/26 04:12:50;;;;;;;19.67;11.53;;;;;;;;;;5514798;25;20239;-74
2024/04/26 04:15:16;;;;;;;18.10;11.43;;;;;;;;;;5514568;25;20279;-74
2024/04/26 04:17:41;;;;;;;18.50;11.80;;;;;;;;;;5509424;25;20247;-74
2024/04/26 04:20:07;;;;;;;18.00;11.70;;;;;;;;;;5511667;25;20244;-74
2024/04/26 04:22:33;;;;;;;20.83;12.53;;;;;;;;;;5511330;25;20244;-74
2024/04/26 04:24:59;;;;;;;18.60;11.70;;;;;;;;;;5510580;25;20471;-74
2024/04/26 04:27:25;;;;;;;19.43;13.23;;;;;;;;;;5502299;25;20651;-74
2024/04/26 04:29:51;;;;;;;18.33;12.23;;;;;;;;;;5507735;25;20239;-74
2024/04/26 04:32:17;;;;;;;16.93;12.17;;;;;;;;;;5517215;25;20275;-74
2024/04/26 04:34:42;;;;;;;19.23;12.33;;;;;;;;;;5515328;25;20247;-75
2024/04/26 04:37:07;;;;;;;20.73;13.10;;;;;;;;;;5494140;25;20329;-74
2024/04/26 04:39:33;;;;;;;20.97;12.73;;;;;;;;;;5516088;26;20273;-74
2024/04/26 04:41:58;;;;;;;19.60;13.23;;;;;;;;;;5519124;25;20267;-74
2024/04/26 04:44:24;;;;;;;19.90;12.43;;;;;;;;;;5519665;25;20247;-73
2024/04/26 04:46:49;;;;;;;19.23;13.70;;;;;;;;;;5518462;25;20781;-74
2024/04/26 04:49:15;;;;;;;25.60;13.33;;;;;;;;;;5521048;25;20290;-74
2024/04/26 04:51:40;;;;;;;25.17;14.30;;;;;;;;;;5520684;25;20270;-74
2024/04/26 04:54:05;;;;;;;23.00;13.93;;;;;;;;;;5510032;26;20286;-74
2024/04/26 04:56:31;;;;;;;21.67;14.50;;;;;;;;;;5513296;25;20281;-75
2024/04/26 04:58:56;;;;;;;22.20;13.70;;;;;;;;;;5486110;26;20243;-74
2024/04/26 05:01:22;;;;;;;22.47;14.57;;;;;;;;;;5519813;25;20282;-74
2024/04/26 05:03:47;;;;;;;19.40;12.55;;;;;;;;;;5514488;25;20266;-74
2024/04/26 05:06:13;;;;;;;23.83;14.20;;;;;;;;;;5510373;25;20704;-74
2024/04/26 05:08:38;;;;;;;23.30;13.20;;;;;;;;;;5510986;25;20237;-74
2024/04/26 05:11:04;;;;;;;22.13;14.20;;;;;;;;;;5516818;25;20632;-75
2024/04/26 05:13:30;;;;;;;23.07;14.07;;;;;;;;;;5524247;25;20378;-74
2024/04/26 05:15:56;;;;;;;23.38;13.73;;;;;;;;;;5522133;25;20723;-74
2024/04/26 05:18:21;;;;;;;23.10;13.73;;;;;;;;;;5517062;25;20267;-74
2024/04/26 05:20:47;;;;;;;20.02;13.77;;;;;;;;;;5520722;25;20235;-74
2024/04/26 05:23:12;;;;;;;21.33;13.45;;;;;;;;;;5518612;25;20255;-73
2024/04/26 05:25:38;;;;;;;21.95;13.65;;;;;;;;;;5521005;25;20232;-75
2024/04/26 05:28:03;;;;;;;23.13;13.90;;;;;;;;;;5522168;25;20695;-74
2024/04/26 05:30:29;;;;;;;23.33;15.32;;;;;;;;;;5508077;25;20244;-75
2024/04/26 05:32:55;;;;;;;21.45;14.30;;;;;;;;;;5514091;25;20692;-74
2024/04/26 05:35:21;;;;;;;21.73;13.65;;;;;;;;;;5463669;26;20324;-74
2024/04/26 05:37:47;;;;;;;20.63;13.73;;;;;;;;;;5520102;25;20268;-74
2024/04/26 05:40:12;;;;;;;22.45;13.57;;;;;;;;;;5521654;25;20375;-74
2024/04/26 05:42:38;;;;;;;20.13;13.43;;;;;;;;;;5519791;25;20451;-75
2024/04/26 05:45:03;;;;;;;21.80;14.20;;;;;;;;;;5513074;25;20750;-75
2024/04/26 05:47:29;;;;;;;21.92;14.93;;;;;;;;;;5510406;25;20227;-75
2024/04/26 05:49:54;;;;;;;22.23;14.05;;;;;;;;;;5523658;25;20343;-76
2024/04/26 05:52:20;;;;;;;21.63;13.93;;;;;;;;;;5515910;25;20727;-75
2024/04/26 05:54:45;;;;;;;24.35;14.90;;;;;;;;;;5514313;25;20698;-75
2024/04/26 05:57:10;;;;;;;25.92;15.85;;;;;;;;;;5509019;25;20236;-75
2024/04/26 05:59:36;;;;;;;23.40;15.27;;;;;;;;;;5484641;26;20464;-75
2024/04/26 06:02:01;;;;;;;23.65;14.70;;;;;;;;;;5514070;25;20243;-75
2024/04/26 06:04:27;;;;;;;22.27;15.13;;;;;;;;;;5518337;25;20279;-74
2024/04/26 06:06:52;;;;;;;19.80;13.48;;;;;;;;;;5515581;25;20351;-74
2024/04/26 06:09:21;;;;;;;27.38;15.18;;;;;;;;;;5520111;25;20248;-74
2024/04/26 06:11:46;;;;;;;17.75;12.95;;;;;;;;;;5516771;25;20232;-75
2024/04/26 06:14:12;;;;;;;22.35;14.98;;;;;;;;;;5509657;25;20907;-74
2024/04/26 06:16:37;;;;;;;22.55;14.50;;;;;;;;;;5521600;25;20286;-75
2024/04/26 06:19:03;;;;;;;19.15;14.02;;;;;;;;;;5487238;26;21141;-75
2024/04/26 06:21:28;;;;;;;20.90;14.13;;;;;;;;;;5518965;25;20243;-75
2024/04/26 06:23:54;;;;;;;20.20;14.18;;;;;;;;;;5521594;25;20731;-73
2024/04/26 06:26:19;;;;;;;23.70;14.85;;;;;;;;;;5486941;26;20240;-74
2024/04/26 06:28:45;;;;;;;23.75;15.05;;;;;;;;;;5518254;25;20604;-74
2024/04/26 06:31:12;;;;;;;22.45;15.65;;;;;;;;;;5509618;25;20279;-74
2024/04/26 06:33:38;;;;;;;20.05;14.35;;;;;;;;;;5514617;25;20336;-74
2024/04/26 06:36:05;;;;;;;21.70;15.40;;;;;;;;;;5486040;26;20256;-73
2024/04/26 06:38:30;;;;;;;21.80;15.07;;;;;;;;;;5519375;25;20239;-74
2024/04/26 06:40:56;;;;;;;22.08;16.10;;;;;;;;;;5502427;25;20803;-74
2024/04/26 06:43:21;;;;;;;20.75;15.10;;;;;;;;;;5517982;25;20251;-74
2024/04/26 06:45:46;;;;;;;23.25;14.80;;;;;;;;;;5505818;25;20251;-74
2024/04/26 06:48:12;;;;;;;23.77;14.80;;;;;;;;;;5515645;25;20346;-74
2024/04/26 06:50:39;;;;;;;23.80;16.08;;;;;;;;;;5476335;26;20262;-74
2024/04/26 06:53:04;;;;;;;24.58;15.77;;;;;;;;;;5508026;25;20239;-73
2024/04/26 06:55:30;;;;;;;22.13;15.27;;;;;;;;;;5512142;25;20287;-74
2024/04/26 06:57:55;;;;;;;21.83;15.32;;;;;;;;;;5509359;25;20236;-75
2024/04/26 07:00:21;;;;;;;22.23;15.75;;;;;;;;;;5500618;25;20236;-75
2024/04/26 07:02:46;;;;;;;20.05;15.73;;;;;;;;;;5512429;25;20263;-74
2024/04/26 07:05:12;;;;;;;21.35;15.35;;;;;;;;;;5519967;25;20850;-75
2024/04/26 07:07:37;;;;;;;20.23;15.10;;;;;;;;;;5503964;25;20339;-75
2024/04/26 07:10:03;;;;;;;20.17;14.60;;;;;;;;;;5511189;25;20235;-75
2024/04/26 07:12:30;;;;;;;24.40;14.77;;;;;;;;;;5505086;25;20251;-75
2024/04/26 07:14:55;;;;;;;21.40;14.05;;;;;;;;;;5518138;25;20270;-75
2024/04/26 07:17:21;;;;;;;17.05;13.40;;;;;;;;;;5513036;25;20235;-75
2024/04/26 07:19:49;;;;;;;20.02;13.75;;;;;;;;;;5507585;25;20278;-75
2024/04/26 07:22:14;;;;;;;23.58;14.88;;;;;;;;;;5511621;25;20232;-75
2024/04/26 07:24:40;;;;;;;19.95;13.93;;;;;;;;;;5534221;25;20372;-75
2024/04/26 07:27:06;;;;;;;24.33;14.65;;;;;;;;;;5485443;26;20243;-75
2024/04/26 07:29:31;;;;;;;21.20;14.35;;;;;;;;;;5517254;25;20789;-75
2024/04/26 07:31:57;;;;;;;20.05;14.73;;;;;;;;;;5486117;26;20263;-75
2024/04/26 07:34:22;;;;;;;19.67;14.48;;;;;;;;;;5513161;25;20735;-76
2024/04/26 07:36:48;;;;;;;22.77;14.43;;;;;;;;;;5479380;25;20312;-75
2024/04/26 07:39:13;;;;;;;19.13;14.32;;;;;;;;;;5523525;25;20235;-74
2024/04/26 07:41:39;;;;;;;22.10;14.73;;;;;;;;;;5514143;25;20295;-75
2024/04/26 07:44:04;;;;;;;21.13;14.05;;;;;;;;;;5516173;25;20271;-75
2024/04/26 07:46:30;;;;;;;20.25;13.93;;;;;;;;;;5513794;25;20235;-75
2024/04/26 07:48:57;;;;;;;18.25;13.60;;;;;;;;;;5520857;25;20697;-75
2024/04/26 07:51:23;;;;;;;20.50;12.68;;;;;;;;;;5510988;25;20240;-74
2024/04/26 07:53:49;;;;;;;18.00;13.73;;;;;;;;;;5508840;25;20354;-74
2024/04/26 07:56:14;;;;;;;19.38;13.70;;;;;;;;;;5511661;25;20243;-75
2024/04/26 07:58:39;;;;;;;16.30;12.82;;;;;;;;;;5512767;25;20248;-75
2024/04/26 08:01:05;;;;;;;18.90;13.00;;;;;;;;;;5496437;25;20627;-75
2024/04/26 08:03:31;;;;;;;18.90;13.10;;;;;;;;;;5514227;25;20347;-76
2024/04/26 08:05:56;;;;;;;17.85;12.48;;;;;;;;;;5503992;25;22599;-74
2024/04/26 08:08:21;;;;;;;17.52;12.20;;;;;;;;;;5509422;25;20291;-75
2024/04/26 08:10:47;;;;;;;14.40;10.27;;;;;;;;;;5521037;25;20231;-74
2024/04/26 08:13:13;;;;;;;17.38;12.10;;;;;;;;;;5495348;25;20786;-73
2024/04/26 08:15:40;;;;;;;17.35;11.63;;;;;;;;;;5511722;25;20328;-74
2024/04/26 08:18:06;;;;;;;17.65;11.05;;;;;;;;;;5519018;25;20726;-74
2024/04/26 08:20:33;;;;;;;15.38;11.02;;;;;;;;;;5508278;25;20260;-74
2024/04/26 08:22:58;;;;;;;15.27;11.02;;;;;;;;;;5520725;25;20236;-73
2024/04/26 08:25:23;;;;;;;19.13;11.27;;;;;;;;;;5517037;25;20623;-74
2024/04/26 08:27:49;;;;;;;15.13;8.80;;;;;;;;;;5519519;25;20833;-75
2024/04/26 08:30:15;;;;;;;13.60;9.27;;;;;;;;;;5518542;25;20695;-74
2024/04/26 08:32:40;;;;;;;12.13;8.43;;;;;;;;;;5518712;25;20733;-75
2024/04/26 08:35:05;;;;;;;13.05;8.52;;;;;;;;;;5522024;25;20278;-75
2024/04/26 08:37:31;;;;;;;11.18;7.07;;;;;;;;;;5518179;25;20235;-75
2024/04/26 08:39:57;;;;;;;9.13;7.30;;;;;;;;;;5471771;26;20340;-75
2024/04/26 08:42:23;;;;;;;11.95;7.40;;;;;;;;;;5508110;25;20231;-75
2024/04/26 08:44:49;;;;;;;11.48;6.55;;;;;;;;;;5520024;25;20274;-73
2024/04/26 08:47:15;;;;;;;11.63;6.88;;;;;;;;;;5519702;25;20235;-74
2024/04/26 08:49:46;;;;;;;9.82;6.40;;;;;;;;;;5525822;25;20236;-74
2024/04/26 08:52:14;;;;;;;9.15;5.50;;;;;;;;;;5520673;25;20244;-73
2024/04/26 08:54:40;;;;;;;7.30;4.50;;;;;;;;;;5520449;25;20236;-74
2024/04/26 08:57:06;;;;;;;7.78;4.93;;;;;;;;;;5522041;25;20269;-74
2024/04/26 08:59:39;;;;;;;14.65;4.97;;;;;;;;;;5521545;25;20262;-73
2024/04/26 09:02:05;;;;;;;9.88;4.97;;;;;;;;;;5504689;25;20241;-73
2024/04/26 09:04:31;;;;;;;6.60;4.60;;;;;;;;;;5513612;25;21066;-74
2024/04/26 09:06:56;;;;;;;12.02;5.15;;;;;;;;;;5519439;25;20329;-74
2024/04/26 09:09:22;;;;;;;10.00;4.47;;;;;;;;;;5519196;26;20247;-75
2024/04/26 09:11:47;;;;;;;7.53;4.38;;;;;;;;;;5517711;25;20607;-73
2024/04/26 09:14:15;;;;;;;6.72;3.65;;;;;;;;;;5521674;25;20294;-71
2024/04/26 09:16:41;;;;;;;7.78;3.45;;;;;;;;;;5514896;25;20237;-74
2024/04/26 09:19:07;;;;;;;6.72;3.40;;;;;;;;;;5503072;25;20600;-73
2024/04/26 09:21:33;;;;;;;7.97;3.28;;;;;;;;;;5525937;25;20577;-75
2024/04/26 09:23:58;;;;;;;6.00;3.47;;;;;;;;;;5518945;25;20231;-74
2024/04/26 09:26:25;;;;;;;5.57;3.40;;;;;;;;;;5521204;25;20611;-74
2024/04/26 09:28:50;;;;;;;6.43;3.42;;;;;;;;;;5529913;25;20240;-75
2024/04/26 09:31:20;;;;;;;5.30;3.30;;;;;;;;;;5487524;25;20243;-75
2024/04/26 09:33:48;;;;;;;5.30;3.50;;;;;;;;;;5520933;25;20247;-76
2024/04/26 09:36:14;;;;;;;5.57;3.15;;;;;;;;;;5489995;25;20286;-74
2024/04/26 09:38:40;;;;;;;4.97;3.15;;;;;;;;;;5509285;25;20624;-75
2024/04/26 09:41:07;;;;;;;4.00;2.75;;;;;;;;;;5480136;26;20239;-74
2024/04/26 09:43:33;;;;;;;5.47;2.85;;;;;;;;;;5466013;26;20441;-74
2024/04/26 09:45:59;;;;;;;7.30;2.70;;;;;;;;;;5520777;25;20286;-75
2024/04/26 09:48:25;;;;;;;4.80;3.15;;;;;;;;;;5519453;25;20355;-74
2024/04/26 09:50:55;;;;;;;5.55;3.45;;;;;;;;;;5527297;25;20435;-75
2024/04/26 09:53:22;;;;;;;6.05;2.80;;;;;;;;;;5520190;25;20244;-71
2024/04/26 09:55:48;;;;;;;5.40;3.03;;;;;;;;;;5519244;25;20766;-75
2024/04/26 09:58:13;;;;;;;6.05;3.00;;;;;;;;;;5525086;25;20227;-75
2024/04/26 10:00:39;;;;;;;6.63;2.83;;;;;;;;;;5535694;25;20325;-75
2024/04/26 10:03:06;;;;;;;3.97;2.22;;;;;;;;;;5519990;25;20338;-74
2024/04/26 10:05:32;;;;;;;4.53;2.28;;;;;;;;;;5488454;26;20300;-74
2024/04/26 10:08:03;;;;;;;5.40;2.33;;;;;;;;;;5486993;25;20704;-74
2024/04/26 10:10:35;;;;;;;6.68;2.50;;;;;;;;;;5550470;25;20226;-73
2024/04/26 10:13:08;;;;;;;3.47;2.10;;;;;;;;;;5523235;25;20342;-75
2024/04/26 10:15:37;;;;;;;4.70;2.58;;;;;;;;;;5518070;25;20726;-74
2024/04/26 10:18:04;;;;;;;6.20;2.72;;;;;;;;;;5515976;25;20240;-70
2024/04/26 10:20:40;;;;;;;3.63;2.10;;;;;;;;;;5519484;25;20282;-74
2024/04/26 10:23:11;;;;;;;3.65;2.10;;;;;;;;;;5488960;26;20262;-73
2024/04/26 10:25:36;;;;;;;3.78;2.50;;;;;;;;;;5498474;25;20300;-71
2024/04/26 10:28:15;;;;;;;5.85;2.20;;;;;;;;;;5531531;25;20645;-74
2024/04/26 10:30:45;;;;;;;3.30;1.80;;;;;;;;;;5454389;26;20283;-75
2024/04/26 10:33:12;;;;;;;3.13;1.65;;;;;;;;;;5517815;25;20228;-76
2024/04/26 10:35:38;;;;;;;2.40;1.30;;;;;;;;;;5518377;25;20295;-72
2024/04/26 10:38:05;;;;;;;2.60;1.42;;;;;;;;;;5514772;25;20239;-75
2024/04/26 10:40:31;;;;;;;5.20;1.38;;;;;;;;;;5518295;25;20774;-73
2024/04/26 10:42:56;;;;;;;3.88;2.05;;;;;;;;;;5503622;25;20248;-73
2024/04/26 10:45:22;;;;;;;3.03;1.20;;;;;;;;;;5516724;25;20307;-74
2024/04/26 10:47:52;;;;;;;3.05;1.10;;;;;;;;;;5530639;25;20282;-73
2024/04/26 10:50:17;;;;;;;2.85;1.45;;;;;;;;;;5519517;25;20231;-74
2024/04/26 10:52:43;;;;;;;3.55;1.40;;;;;;;;;;5503179;25;20263;-74
2024/04/26 10:55:08;;;;;;;3.35;1.42;;;;;;;;;;5491716;25;20228;-75
2024/04/26 10:57:34;;;;;;;3.05;1.42;;;;;;;;;;5517003;25;20243;-74
2024/04/26 11:00:00;;;;;;;6.70;1.98;;;;;;;;;;5519121;25;20232;-74
2024/04/26 11:02:27;;;;;;;4.95;1.67;;;;;;;;;;5519298;25;20243;-74
2024/04/26 11:05:05;;;;;;;4.18;1.80;;;;;;;;;;5517189;25;20244;-72
2024/04/26 11:07:31;;;;;;;2.53;1.50;;;;;;;;;;5515106;25;20785;-74
2024/04/26 11:09:57;;;;;;;2.58;1.48;;;;;;;;;;5505619;26;20659;-76
2024/04/26 11:12:22;;;;;;;5.78;1.80;;;;;;;;;;5498357;25;20262;-75
2024/04/26 11:14:48;;;;;;;4.90;1.42;;;;;;;;;;5515497;26;20274;-75
2024/04/26 11:17:14;;;;;;;2.63;1.20;;;;;;;;;;5485944;26;20235;-74
2024/04/26 11:19:41;;;;;;;3.10;1.40;;;;;;;;;;5522374;25;20236;-74
2024/04/26 11:22:07;;;;;;;3.30;1.30;;;;;;;;;;5485454;25;20248;-74
2024/04/26 11:24:33;;;;;;;4.63;1.73;;;;;;;;;;5517061;25;20270;-73
2024/04/26 11:27:02;;;;;;;3.15;1.42;;;;;;;;;;5514639;25;20293;-75
2024/04/26 11:29:28;;;;;;;2.85;1.40;;;;;;;;;;5518602;25;20239;-74
2024/04/26 11:31:54;;;;;;;3.88;1.60;;;;;;;;;;5519335;25;20282;-73
2024/04/26 11:34:19;;;;;;;3.80;1.60;;;;;;;;;;5518519;25;20227;-74
2024/04/26 11:36:48;;;;;;;2.47;1.58;;;;;;;;;;5519448;25;20660;-74
2024/04/26 11:39:13;;;;;;;2.97;1.48;;;;;;;;;;5518825;25;20432;-74
2024/04/26 11:41:39;;;;;;;4.45;1.55;;;;;;;;;;5514454;25;20653;-72
2024/04/26 11:44:04;;;;;;;2.97;1.13;;;;;;;;;;5520702;25;20235;-74
2024/04/26 11:46:30;;;;;;;2.80;1.17;;;;;;;;;;5522139;25;20277;-74
2024/04/26 11:48:56;;;;;;;2.78;1.23;;;;;;;;;;5529719;25;20277;-73
2024/04/26 11:51:22;;;;;;;3.20;1.15;;;;;;;;;;5521298;26;20236;-74
2024/04/26 11:53:48;;;;;;;3.55;1.20;;;;;;;;;;5520027;25;20239;-73
2024/04/26 11:56:14;;;;;;;3.42;1.45;;;;;;;;;;5523035;25;20278;-75
2024/04/26 11:58:39;;;;;;;5.15;1.45;;;;;;;;;;5521859;25;20232;-74
2024/04/26 12:01:05;;;;;;;3.38;1.40;;;;;;;;;;5526329;25;20226;-73
2024/04/26 12:03:32;;;;;;;3.47;1.55;;;;;;;;;;5481556;25;20536;-74
2024/04/26 12:05:58;;;;;;;6.32;1.40;;;;;;;;;;5518654;25;20570;-74
2024/04/26 12:08:24;;;;;;;2.15;1.55;;;;;;;;;;5519178;25;20235;-73
2024/04/26 12:10:50;;;;;;;1.85;1.27;;;;;;;;;;5514536;25;20261;-73
2024/04/26 12:13:15;;;;;;;2.03;1.13;;;;;;;;;;5518987;25;20228;-74
2024/04/26 12:15:41;;;;;;;3.83;1.40;;;;;;;;;;5519405;25;20343;-74
2024/04/26 12:18:09;;;;;;;4.97;1.38;;;;;;;;;;5519395;25;20228;-74
2024/04/26 12:20:35;;;;;;;4.35;1.50;;;;;;;;;;5520611;25;20231;-74
2024/04/26 12:23:00;;;;;;;2.40;1.20;;;;;;;;;;5501566;26;20295;-74
2024/04/26 12:25:26;;;;;;;4.13;1.00;;;;;;;;;;5519431;25;20302;-74
2024/04/26 12:27:51;;;;;;;2.25;1.05;;;;;;;;;;5502876;25;20239;-74
2024/04/26 12:30:17;;;;;;;4.25;1.40;;;;;;;;;;5523532;25;20235;-74
2024/04/26 12:32:43;;;;;;;3.55;1.30;;;;;;;;;;5534495;25;20238;-74
2024/04/26 12:35:08;;;;;;;5.43;1.35;;;;;;;;;;5519792;26;20543;-73
2024/04/26 12:37:36;;;;;;;3.72;1.30;;;;;;;;;;5523659;25;20239;-75
2024/04/26 12:40:02;;;;;;;2.38;1.17;;;;;;;;;;5520923;25;20719;-74
2024/04/26 12:42:27;;;;;;;2.60;1.10;;;;;;;;;;5490945;26;20236;-73
2024/04/26 12:44:53;;;;;;;2.78;1.30;;;;;;;;;;5518908;25;20271;-73
2024/04/26 12:47:24;;;;;;;3.30;1.30;;;;;;;;;;5523573;25;20378;-72
2024/04/26 12:49:50;;;;;;;2.20;1.30;;;;;;;;;;5524059;25;20239;-73
2024/04/26 12:52:16;;;;;;;4.80;1.80;;;;;;;;;;5516689;25;20239;-72
2024/04/26 12:54:43;;;;;;;5.25;1.30;;;;;;;;;;5518960;25;20294;-73
2024/04/26 12:57:10;;;;;;;1.75;0.85;;;;;;;;;;5475275;26;20240;-74
2024/04/26 12:59:35;;;;;;;3.17;1.20;;;;;;;;;;5544521;25;20239;-73
2024/04/26 13:02:01;;;;;;;3.78;0.90;;;;;;;;;;5526535;25;20664;-70
2024/04/26 13:04:26;;;;;;;2.63;1.02;;;;;;;;;;5521688;25;20291;-72
2024/04/26 13:06:54;;;;;;;4.60;1.58;;;;;;;;;;5518986;25;20247;-73
2024/04/26 13:09:20;;;;;;;3.55;2.53;;;;;;;;;;5521306;25;20235;-73
2024/04/26 13:11:45;;;;;;;4.65;1.60;;;;;;;;;;5514929;25;20278;-73
2024/04/26 13:14:12;;;;;;;2.42;1.55;;;;;;;;;;5520377;25;20259;-73
2024/04/26 13:16:37;;;;;;;3.10;1.80;;;;;;;;;;5521458;25;20891;-72
2024/04/26 13:19:03;;;;;;;3.17;1.20;;;;;;;;;;5520879;25;20319;-73
2024/04/26 13:21:28;;;;;;;4.07;1.17;;;;;;;;;;5517931;26;20752;-74
2024/04/26 13:23:54;;;;;;;2.10;1.30;;;;;;;;;;5521107;25;20289;-74
2024/04/26 13:26:19;;;;;;;1.50;1.40;;;;;;;;;;5517347;25;20304;-73
2024/04/26 13:28:44;;;;;;;3.67;1.25;;;;;;;;;;5519495;26;20336;-74
2024/04/26 13:31:10;;;;;;;2.67;1.13;;;;;;;;;;5523675;25;20227;-73
2024/04/26 13:33:36;;;;;;;5.63;1.00;;;;;;;;;;5522170;25;20271;-73
2024/04/26 13:36:02;;;;;;;3.38;1.05;;;;;;;;;;5512234;26;20227;-73
2024/04/26 13:38:27;;;;;;;2.25;0.95;;;;;;;;;;5522514;25;20587;-72
2024/04/26 13:40:53;;;;;;;2.78;0.93;;;;;;;;;;5521422;25;20232;-73
2024/04/26 13:43:18;;;;;;;2.67;1.00;;;;;;;;;;5520398;25;20671;-73
2024/04/26 13:45:43;;;;;;;1.38;0.90;;;;;;;;;;5518821;25;20273;-72
2024/04/26 13:48:09;;;;;;;3.95;1.00;;;;;;;;;;5522306;25;20331;-72
2024/04/26 13:50:35;;;;;;;4.30;0.90;;;;;;;;;;5512546;25;20248;-73
2024/04/26 13:53:00;;;;;;;3.75;1.08;;;;;;;;;;5536306;25;20279;-72
2024/04/26 13:55:26;;;;;;;2.80;0.98;;;;;;;;;;5471127;26;20328;-72
2024/04/26 13:57:52;;;;;;;3.30;1.15;;;;;;;;;;5514701;25;20227;-73
2024/04/26 14:00:17;;;;;;;2.83;1.13;;;;;;;;;;5537967;25;20352;-72
2024/04/26 14:02:45;;;;;;;3.63;1.50;;;;;;;;;;5521344;25;20240;-73
2024/04/26 14:05:13;;;;;;;3.30;1.25;;;;;;;;;;5518082;25;20326;-74
2024/04/26 14:07:39;;;;;;;1.48;1.00;;;;;;;;;;5506888;25;20762;-74
2024/04/26 14:10:05;;;;;;;3.67;0.90;;;;;;;;;;5512904;25;20255;-72
2024/04/26 14:12:32;;;;;;;2.58;1.10;;;;;;;;;;5511160;25;20247;-70
2024/04/26 14:14:57;;;;;;;2.45;1.00;;;;;;;;;;5519468;25;20237;-74
2024/04/26 14:17:23;;;;;;;2.38;1.05;;;;;;;;;;5515998;25;20232;-73
2024/04/26 14:19:48;;;;;;;2.20;1.27;;;;;;;;;;5518475;25;20231;-73
2024/04/26 14:22:13;;;;;;;2.35;1.10;;;;;;;;;;5519583;25;20303;-73
2024/04/26 14:24:39;;;;;;;2.50;1.30;;;;;;;;;;5520971;25;20243;-74